sensor_id;sensor_type;location;lat;lon;timestamp;pressure;altitude;pressure_sealevel;temperature;humidity
14882;BME280;7533;51.278;12.588;2023-07-31T00:04:14;99769.94;;;27.91;54.74
14882;BME280;7533;51.278;12.588;2023-07-31T00:09:17;99769.41;;;27.88;54.83
14882;BME280;7533;51.278;12.588;2023-07-31T00:14:21;99756.16;;;27.85;55.16
14882;BME280;7533;51.278;12.588;2023-07-31T00:19:24;99756.16;;;27.85;55.13
14882;BME280;7533;51.278;12.588;2023-07-31T00:24:27;99749.47;;;27.79;55.15
14882;BME280;7533;51.278;12.588;2023-07-31T00:29:31;99746.03;;;27.77;55.06
14882;BME280;7533;51.278;12.588;2023-07-31T00:34:34;99735.69;;;27.73;55.23
14882;BME280;7533;51.278;12.588;2023-07-31T00:39:37;99736.84;;;27.70;55.30
14882;BME280;7533;51.278;12.588;2023-07-31T00:45:10;99742.41;;;27.68;55.23
14882;BME280;7533;51.278;12.588;2023-07-31T00:50:14;99736.44;;;27.65;55.24
14882;BME280;7533;51.278;12.588;2023-07-31T00:55:17;99734.19;;;27.60;55.35
14882;BME280;7533;51.278;12.588;2023-07-31T01:00:22;99725.34;;;27.58;55.22
14882;BME280;7533;51.278;12.588;2023-07-31T01:05:29;99725.50;;;27.57;55.30
14882;BME280;7533;51.278;12.588;2023-07-31T01:10:44;99720.38;;;27.54;55.26
14882;BME280;7533;51.278;12.588;2023-07-31T01:15:52;99718.69;;;27.53;55.35
14882;BME280;7533;51.278;12.588;2023-07-31T01:21:06;99713.53;;;27.50;55.16
14882;BME280;7533;51.278;12.588;2023-07-31T01:26:19;99718.47;;;27.46;55.38
14882;BME280;7533;51.278;12.588;2023-07-31T01:31:24;99717.75;;;27.44;55.38
14882;BME280;7533;51.278;12.588;2023-07-31T01:36:30;99709.78;;;27.42;55.59
14882;BME280;7533;51.278;12.588;2023-07-31T01:41:35;99702.63;;;27.41;55.43
14882;BME280;7533;51.278;12.588;2023-07-31T01:46:39;99700.09;;;27.40;55.62
14882;BME280;7533;51.278;12.588;2023-07-31T01:51:43;99704.13;;;27.36;55.85
14882;BME280;7533;51.278;12.588;2023-07-31T01:56:47;99697.28;;;27.32;55.80
14882;BME280;7533;51.278;12.588;2023-07-31T02:01:50;99695.94;;;27.28;56.16
14882;BME280;7533;51.278;12.588;2023-07-31T02:07:00;99697.25;;;27.24;56.03
14882;BME280;7533;51.278;12.588;2023-07-31T02:12:05;99687.22;;;27.24;56.09
14882;BME280;7533;51.278;12.588;2023-07-31T02:17:15;99675.69;;;27.22;56.14
14882;BME280;7533;51.278;12.588;2023-07-31T02:22:17;99668.50;;;27.21;56.17
14882;BME280;7533;51.278;12.588;2023-07-31T02:27:22;99669.69;;;27.19;56.28
14882;BME280;7533;51.278;12.588;2023-07-31T02:32:29;99668.13;;;27.16;56.22
14882;BME280;7533;51.278;12.588;2023-07-31T02:37:33;99664.56;;;27.15;56.20
14882;BME280;7533;51.278;12.588;2023-07-31T02:42:37;99659.97;;;27.16;56.26
14882;BME280;7533;51.278;12.588;2023-07-31T02:47:49;99659.47;;;27.12;56.40
14882;BME280;7533;51.278;12.588;2023-07-31T02:52:52;99660.63;;;27.10;56.38
14882;BME280;7533;51.278;12.588;2023-07-31T02:57:56;99652.47;;;27.10;56.50
14882;BME280;7533;51.278;12.588;2023-07-31T03:03:00;99651.06;;;27.06;56.61
14882;BME280;7533;51.278;12.588;2023-07-31T03:08:03;99644.06;;;27.03;56.71
14882;BME280;7533;51.278;12.588;2023-07-31T03:13:08;99645.34;;;26.91;55.99
14882;BME280;7533;51.278;12.588;2023-07-31T03:18:11;99647.25;;;26.55;55.97
14882;BME280;7533;51.278;12.588;2023-07-31T03:23:15;99645.91;;;26.59;56.84
14882;BME280;7533;51.278;12.588;2023-07-31T03:28:19;99643.22;;;26.31;56.73
14882;BME280;7533;51.278;12.588;2023-07-31T03:33:22;99639.13;;;26.27;58.19
14882;BME280;7533;51.278;12.588;2023-07-31T03:38:25;99633.59;;;25.92;58.40
14882;BME280;7533;51.278;12.588;2023-07-31T03:43:29;99635.84;;;25.78;58.55
14882;BME280;7533;51.278;12.588;2023-07-31T03:48:33;99629.06;;;25.55;59.08
14882;BME280;7533;51.278;12.588;2023-07-31T03:53:36;99623.44;;;25.29;58.94
14882;BME280;7533;51.278;12.588;2023-07-31T03:58:40;99622.59;;;25.19;59.10
14882;BME280;7533;51.278;12.588;2023-07-31T04:03:43;99618.22;;;25.08;59.01
14882;BME280;7533;51.278;12.588;2023-07-31T04:08:46;99622.19;;;25.14;59.96
14882;BME280;7533;51.278;12.588;2023-07-31T04:13:51;99616.22;;;24.91;59.17
14882;BME280;7533;51.278;12.588;2023-07-31T04:18:53;99618.09;;;24.80;60.25
14882;BME280;7533;51.278;12.588;2023-07-31T04:23:56;99622.66;;;24.70;60.78
14882;BME280;7533;51.278;12.588;2023-07-31T04:29:01;99612.97;;;24.68;60.49
14882;BME280;7533;51.278;12.588;2023-07-31T04:34:04;99606.59;;;24.59;61.54
14882;BME280;7533;51.278;12.588;2023-07-31T04:39:07;99613.69;;;24.50;61.35
14882;BME280;7533;51.278;12.588;2023-07-31T04:44:11;99602.47;;;24.36;62.19
14882;BME280;7533;51.278;12.588;2023-07-31T04:49:14;99610.81;;;24.13;63.28
14882;BME280;7533;51.278;12.588;2023-07-31T04:54:17;99605.06;;;24.07;63.07
14882;BME280;7533;51.278;12.588;2023-07-31T04:59:21;99607.34;;;24.01;63.38
14882;BME280;7533;51.278;12.588;2023-07-31T05:04:24;99609.19;;;23.91;63.91
14882;BME280;7533;51.278;12.588;2023-07-31T05:09:27;99607.16;;;23.84;64.21
14882;BME280;7533;51.278;12.588;2023-07-31T05:14:33;99604.91;;;23.89;64.39
14882;BME280;7533;51.278;12.588;2023-07-31T05:19:36;99602.47;;;23.76;65.27
14882;BME280;7533;51.278;12.588;2023-07-31T05:24:39;99603.84;;;23.70;64.93
14882;BME280;7533;51.278;12.588;2023-07-31T05:29:44;99615.22;;;23.64;65.39
14882;BME280;7533;51.278;12.588;2023-07-31T05:34:50;99612.75;;;23.61;66.21
14882;BME280;7533;51.278;12.588;2023-07-31T05:39:53;99607.56;;;23.69;66.11
14882;BME280;7533;51.278;12.588;2023-07-31T05:44:57;99602.88;;;23.71;65.74
14882;BME280;7533;51.278;12.588;2023-07-31T05:50:00;99598.50;;;23.80;66.04
14882;BME280;7533;51.278;12.588;2023-07-31T05:55:09;99601.34;;;23.88;65.51
14882;BME280;7533;51.278;12.588;2023-07-31T06:00:14;99594.19;;;23.78;65.82
14882;BME280;7533;51.278;12.588;2023-07-31T06:05:23;99597.22;;;23.54;66.83
14882;BME280;7533;51.278;12.588;2023-07-31T06:10:27;99603.03;;;23.49;66.96
14882;BME280;7533;51.278;12.588;2023-07-31T06:15:33;99597.19;;;23.44;67.21
14882;BME280;7533;51.278;12.588;2023-07-31T06:20:36;99601.31;;;23.17;67.82
14882;BME280;7533;51.278;12.588;2023-07-31T06:25:41;99606.16;;;22.93;68.78
14882;BME280;7533;51.278;12.588;2023-07-31T06:30:45;99605.94;;;22.85;68.96
14882;BME280;7533;51.278;12.588;2023-07-31T06:35:49;99608.16;;;22.80;69.90
14882;BME280;7533;51.278;12.588;2023-07-31T06:40:52;99611.13;;;22.77;70.03
14882;BME280;7533;51.278;12.588;2023-07-31T06:45:59;99608.34;;;23.60;68.84
14882;BME280;7533;51.278;12.588;2023-07-31T06:51:07;99599.22;;;24.01;67.58
14882;BME280;7533;51.278;12.588;2023-07-31T06:56:11;99597.00;;;24.26;66.98
14882;BME280;7533;51.278;12.588;2023-07-31T07:01:16;99589.91;;;24.44;66.31
14882;BME280;7533;51.278;12.588;2023-07-31T07:06:19;99592.19;;;24.59;65.99
14882;BME280;7533;51.278;12.588;2023-07-31T07:11:22;99596.63;;;24.69;65.72
14882;BME280;7533;51.278;12.588;2023-07-31T07:16:28;99599.00;;;24.82;65.33
14882;BME280;7533;51.278;12.588;2023-07-31T07:21:31;99612.66;;;24.90;65.14
14882;BME280;7533;51.278;12.588;2023-07-31T07:26:50;99613.81;;;24.97;65.25
14882;BME280;7533;51.278;12.588;2023-07-31T07:32:00;99613.06;;;25.05;65.21
14882;BME280;7533;51.278;12.588;2023-07-31T07:37:17;99599.81;;;25.12;64.93
14882;BME280;7533;51.278;12.588;2023-07-31T07:42:20;99600.09;;;25.18;64.85
14882;BME280;7533;51.278;12.588;2023-07-31T07:47:25;99601.50;;;25.22;64.75
14882;BME280;7533;51.278;12.588;2023-07-31T07:52:30;99602.63;;;25.29;64.63
14882;BME280;7533;51.278;12.588;2023-07-31T07:57:34;99601.16;;;25.35;64.45
14882;BME280;7533;51.278;12.588;2023-07-31T08:02:43;99596.88;;;25.42;64.55
14882;BME280;7533;51.278;12.588;2023-07-31T08:07:57;99592.56;;;25.49;64.34
14882;BME280;7533;51.278;12.588;2023-07-31T08:13:07;99587.41;;;25.56;63.92
14882;BME280;7533;51.278;12.588;2023-07-31T08:18:25;99593.53;;;25.58;63.96
14882;BME280;7533;51.278;12.588;2023-07-31T08:23:38;99591.00;;;24.90;62.84
14882;BME280;7533;51.278;12.588;2023-07-31T08:28:53;99586.34;;;24.63;63.16
14882;BME280;7533;51.278;12.588;2023-07-31T08:34:12;99583.91;;;24.41;63.33
14882;BME280;7533;51.278;12.588;2023-07-31T08:39:20;99586.44;;;24.23;64.11
14882;BME280;7533;51.278;12.588;2023-07-31T08:44:37;99596.47;;;24.42;63.29
14882;BME280;7533;51.278;12.588;2023-07-31T08:49:47;99589.91;;;24.35;63.98
14882;BME280;7533;51.278;12.588;2023-07-31T08:55:08;99588.66;;;24.48;63.86
14882;BME280;7533;51.278;12.588;2023-07-31T09:00:24;99595.44;;;24.33;63.98
14882;BME280;7533;51.278;12.588;2023-07-31T09:05:56;99597.69;;;24.28;63.59
14882;BME280;7533;51.278;12.588;2023-07-31T09:11:13;99593.91;;;24.40;63.24
14882;BME280;7533;51.278;12.588;2023-07-31T09:16:51;99602.00;;;24.40;62.91
14882;BME280;7533;51.278;12.588;2023-07-31T09:22:08;99595.97;;;24.17;63.58
14882;BME280;7533;51.278;12.588;2023-07-31T09:27:25;99600.25;;;24.10;63.67
14882;BME280;7533;51.278;12.588;2023-07-31T09:32:33;99594.56;;;24.23;63.77
14882;BME280;7533;51.278;12.588;2023-07-31T09:37:52;99596.72;;;24.19;63.40
14882;BME280;7533;51.278;12.588;2023-07-31T09:43:10;99583.03;;;24.21;63.80
14882;BME280;7533;51.278;12.588;2023-07-31T09:48:39;99581.88;;;23.94;64.70
14882;BME280;7533;51.278;12.588;2023-07-31T09:53:57;99575.50;;;24.15;63.58
14882;BME280;7533;51.278;12.588;2023-07-31T09:59:11;99563.28;;;24.20;63.79
14882;BME280;7533;51.278;12.588;2023-07-31T10:04:28;99566.53;;;24.24;63.78
14882;BME280;7533;51.278;12.588;2023-07-31T10:09:48;99559.56;;;24.21;63.90
14882;BME280;7533;51.278;12.588;2023-07-31T10:15:02;99559.72;;;24.39;63.92
14882;BME280;7533;51.278;12.588;2023-07-31T10:20:20;99554.59;;;24.26;64.70
14882;BME280;7533;51.278;12.588;2023-07-31T10:25:30;99560.97;;;23.96;66.27
14882;BME280;7533;51.278;12.588;2023-07-31T10:30:35;99545.78;;;24.53;65.23
14882;BME280;7533;51.278;12.588;2023-07-31T10:35:40;99542.88;;;24.74;64.35
14882;BME280;7533;51.278;12.588;2023-07-31T10:41:08;99541.75;;;24.87;64.16
14882;BME280;7533;51.278;12.588;2023-07-31T10:46:16;99537.13;;;24.97;64.21
14882;BME280;7533;51.278;12.588;2023-07-31T10:51:34;99534.44;;;25.06;64.02
14882;BME280;7533;51.278;12.588;2023-07-31T10:56:45;99530.00;;;25.15;63.66
14882;BME280;7533;51.278;12.588;2023-07-31T11:01:57;99521.81;;;25.25;63.74
14882;BME280;7533;51.278;12.588;2023-07-31T11:07:08;99513.97;;;25.31;63.91
14882;BME280;7533;51.278;12.588;2023-07-31T11:12:24;99501.50;;;25.39;63.51
14882;BME280;7533;51.278;12.588;2023-07-31T11:17:32;99501.47;;;25.48;63.49
14882;BME280;7533;51.278;12.588;2023-07-31T11:22:38;99493.25;;;25.58;63.28
14882;BME280;7533;51.278;12.588;2023-07-31T11:27:50;99480.50;;;25.68;62.59
14882;BME280;7533;51.278;12.588;2023-07-31T11:33:08;99476.06;;;25.77;62.75
14882;BME280;7533;51.278;12.588;2023-07-31T11:38:21;99459.00;;;25.84;62.53
14882;BME280;7533;51.278;12.588;2023-07-31T11:43:34;99457.38;;;25.92;62.26
14882;BME280;7533;51.278;12.588;2023-07-31T11:48:40;99454.59;;;26.01;62.67
14882;BME280;7533;51.278;12.588;2023-07-31T11:53:55;99459.34;;;25.99;62.67
14882;BME280;7533;51.278;12.588;2023-07-31T11:59:01;99455.28;;;26.03;62.87
14882;BME280;7533;51.278;12.588;2023-07-31T12:04:11;99464.50;;;26.10;62.55
14882;BME280;7533;51.278;12.588;2023-07-31T12:09:19;99465.41;;;26.19;62.46
14882;BME280;7533;51.278;12.588;2023-07-31T12:14:33;99454.09;;;26.24;62.37
14882;BME280;7533;51.278;12.588;2023-07-31T12:19:41;99456.00;;;26.31;62.38
14882;BME280;7533;51.278;12.588;2023-07-31T12:24:47;99449.94;;;26.37;62.41
14882;BME280;7533;51.278;12.588;2023-07-31T12:29:55;99438.53;;;26.44;62.72
14882;BME280;7533;51.278;12.588;2023-07-31T12:35:11;99435.41;;;26.38;62.85
14882;BME280;7533;51.278;12.588;2023-07-31T12:40:19;99443.28;;;26.06;63.35
14882;BME280;7533;51.278;12.588;2023-07-31T12:45:39;99430.81;;;25.95;63.53
14882;BME280;7533;51.278;12.588;2023-07-31T12:50:48;99438.78;;;25.97;63.89
14882;BME280;7533;51.278;12.588;2023-07-31T12:55:59;99428.34;;;25.84;63.50
14882;BME280;7533;51.278;12.588;2023-07-31T13:01:08;99419.25;;;26.11;63.18
14882;BME280;7533;51.278;12.588;2023-07-31T13:06:20;99385.97;;;26.27;62.80
14882;BME280;7533;51.278;12.588;2023-07-31T13:11:28;99378.13;;;26.42;62.59
14882;BME280;7533;51.278;12.588;2023-07-31T13:16:41;99362.59;;;26.60;63.15
14882;BME280;7533;51.278;12.588;2023-07-31T13:21:47;99354.72;;;26.75;63.01
14882;BME280;7533;51.278;12.588;2023-07-31T13:27:00;99357.63;;;26.81;62.86
14882;BME280;7533;51.278;12.588;2023-07-31T13:32:12;99361.72;;;26.85;62.99
14882;BME280;7533;51.278;12.588;2023-07-31T13:37:19;99359.72;;;26.96;63.33
14882;BME280;7533;51.278;12.588;2023-07-31T13:42:22;99354.47;;;27.02;63.34
14882;BME280;7533;51.278;12.588;2023-07-31T13:48:04;99347.38;;;27.09;63.52
14882;BME280;7533;51.278;12.588;2023-07-31T13:53:16;99346.91;;;27.14;63.55
14882;BME280;7533;51.278;12.588;2023-07-31T13:58:23;99352.69;;;27.11;63.40
14882;BME280;7533;51.278;12.588;2023-07-31T14:03:37;99345.03;;;27.14;63.35
14882;BME280;7533;51.278;12.588;2023-07-31T14:08:49;99344.22;;;27.22;63.25
14882;BME280;7533;51.278;12.588;2023-07-31T14:13:56;99339.78;;;27.21;63.18
14882;BME280;7533;51.278;12.588;2023-07-31T14:19:01;99335.03;;;27.23;63.04
14882;BME280;7533;51.278;12.588;2023-07-31T14:24:07;99327.03;;;27.22;63.21
14882;BME280;7533;51.278;12.588;2023-07-31T14:29:10;99329.75;;;27.22;63.23
14882;BME280;7533;51.278;12.588;2023-07-31T14:34:17;99327.41;;;27.19;63.19
14882;BME280;7533;51.278;12.588;2023-07-31T14:39:24;99322.81;;;27.19;63.04
14882;BME280;7533;51.278;12.588;2023-07-31T14:44:36;99333.50;;;27.21;62.92
14882;BME280;7533;51.278;12.588;2023-07-31T14:49:44;99335.91;;;27.24;62.65
14882;BME280;7533;51.278;12.588;2023-07-31T14:54:54;99332.47;;;27.22;62.54
14882;BME280;7533;51.278;12.588;2023-07-31T14:59:59;99334.88;;;27.17;62.80
14882;BME280;7533;51.278;12.588;2023-07-31T15:05:07;99333.34;;;27.22;62.21
14882;BME280;7533;51.278;12.588;2023-07-31T15:10:10;99323.34;;;27.23;62.08
14882;BME280;7533;51.278;12.588;2023-07-31T15:15:14;99325.03;;;27.24;62.14
14882;BME280;7533;51.278;12.588;2023-07-31T15:20:19;99310.91;;;27.20;62.06
14882;BME280;7533;51.278;12.588;2023-07-31T15:25:23;99309.41;;;27.18;62.21
14882;BME280;7533;51.278;12.588;2023-07-31T15:30:26;99309.53;;;27.16;62.18
14882;BME280;7533;51.278;12.588;2023-07-31T15:35:30;99303.97;;;27.18;62.43
14882;BME280;7533;51.278;12.588;2023-07-31T15:40:34;99307.34;;;27.11;62.68
14882;BME280;7533;51.278;12.588;2023-07-31T15:45:38;99297.47;;;27.10;62.82
14882;BME280;7533;51.278;12.588;2023-07-31T15:50:43;99301.75;;;27.13;62.86
14882;BME280;7533;51.278;12.588;2023-07-31T15:55:50;99295.13;;;27.15;62.47
14882;BME280;7533;51.278;12.588;2023-07-31T16:00:59;99289.69;;;27.15;62.52
14882;BME280;7533;51.278;12.588;2023-07-31T16:06:10;99295.47;;;27.21;62.19
14882;BME280;7533;51.278;12.588;2023-07-31T16:11:14;99289.38;;;27.19;62.51
14882;BME280;7533;51.278;12.588;2023-07-31T16:16:22;99285.44;;;27.21;62.57
14882;BME280;7533;51.278;12.588;2023-07-31T16:21:35;99271.38;;;27.18;62.90
14882;BME280;7533;51.278;12.588;2023-07-31T16:26:39;99278.31;;;27.12;63.04
14882;BME280;7533;51.278;12.588;2023-07-31T16:31:44;99271.03;;;27.12;63.07
14882;BME280;7533;51.278;12.588;2023-07-31T16:37:00;99281.72;;;27.14;63.21
14882;BME280;7533;51.278;12.588;2023-07-31T16:42:05;99275.78;;;27.19;63.00
14882;BME280;7533;51.278;12.588;2023-07-31T16:47:11;99283.94;;;27.19;63.41
14882;BME280;7533;51.278;12.588;2023-07-31T16:52:19;99286.81;;;27.17;64.39
14882;BME280;7533;51.278;12.588;2023-07-31T16:57:23;99270.34;;;27.19;64.22
14882;BME280;7533;51.278;12.588;2023-07-31T17:02:34;99256.59;;;27.20;63.90
14882;BME280;7533;51.278;12.588;2023-07-31T17:07:44;99234.50;;;27.15;64.00
14882;BME280;7533;51.278;12.588;2023-07-31T17:12:53;99235.56;;;27.22;63.68
14882;BME280;7533;51.278;12.588;2023-07-31T17:17:59;99243.38;;;27.33;63.50
14882;BME280;7533;51.278;12.588;2023-07-31T17:23:04;99229.59;;;27.35;63.49
14882;BME280;7533;51.278;12.588;2023-07-31T17:28:09;99239.28;;;27.37;63.38
14882;BME280;7533;51.278;12.588;2023-07-31T17:33:13;99223.31;;;27.51;62.87
14882;BME280;7533;51.278;12.588;2023-07-31T17:38:20;99240.44;;;27.59;62.79
14882;BME280;7533;51.278;12.588;2023-07-31T17:43:28;99237.72;;;27.67;62.43
14882;BME280;7533;51.278;12.588;2023-07-31T17:48:34;99239.44;;;27.77;62.21
14882;BME280;7533;51.278;12.588;2023-07-31T17:53:47;99230.59;;;27.83;62.02
14882;BME280;7533;51.278;12.588;2023-07-31T17:58:50;99235.00;;;27.92;61.37
14882;BME280;7533;51.278;12.588;2023-07-31T18:03:57;99226.13;;;27.98;61.26
14882;BME280;7533;51.278;12.588;2023-07-31T18:09:08;99227.50;;;28.02;61.10
14882;BME280;7533;51.278;12.588;2023-07-31T18:14:13;99224.59;;;28.04;61.11
14882;BME280;7533;51.278;12.588;2023-07-31T18:19:16;99225.56;;;28.11;60.61
14882;BME280;7533;51.278;12.588;2023-07-31T18:24:24;99220.81;;;28.13;60.48
14882;BME280;7533;51.278;12.588;2023-07-31T18:29:31;99217.91;;;28.14;60.69
14882;BME280;7533;51.278;12.588;2023-07-31T18:34:35;99212.28;;;28.24;60.21
14882;BME280;7533;51.278;12.588;2023-07-31T18:39:41;99211.25;;;28.25;60.00
14882;BME280;7533;51.278;12.588;2023-07-31T18:44:49;99196.63;;;28.34;59.96
14882;BME280;7533;51.278;12.588;2023-07-31T18:49:52;99190.81;;;28.37;60.16
14882;BME280;7533;51.278;12.588;2023-07-31T18:54:59;99186.53;;;28.43;59.72
14882;BME280;7533;51.278;12.588;2023-07-31T19:00:03;99178.88;;;28.46;59.44
14882;BME280;7533;51.278;12.588;2023-07-31T19:05:17;99175.41;;;28.53;59.38
14882;BME280;7533;51.278;12.588;2023-07-31T19:10:24;99172.31;;;28.56;59.40
14882;BME280;7533;51.278;12.588;2023-07-31T19:15:32;99166.00;;;28.63;59.42
14882;BME280;7533;51.278;12.588;2023-07-31T19:20:35;99157.28;;;28.68;58.75
14882;BME280;7533;51.278;12.588;2023-07-31T19:25:40;99164.44;;;28.69;59.12
14882;BME280;7533;51.278;12.588;2023-07-31T19:30:44;99164.91;;;28.72;58.97
14882;BME280;7533;51.278;12.588;2023-07-31T19:35:53;99159.44;;;28.72;58.46
14882;BME280;7533;51.278;12.588;2023-07-31T19:40:59;99158.19;;;28.83;58.30
14882;BME280;7533;51.278;12.588;2023-07-31T19:46:11;99146.75;;;28.88;58.44
14882;BME280;7533;51.278;12.588;2023-07-31T19:51:21;99133.78;;;28.90;58.27
14882;BME280;7533;51.278;12.588;2023-07-31T19:56:27;99112.53;;;28.93;58.14
14882;BME280;7533;51.278;12.588;2023-07-31T20:01:33;99111.31;;;28.96;58.03
14882;BME280;7533;51.278;12.588;2023-07-31T20:06:37;99104.66;;;28.98;58.30
14882;BME280;7533;51.278;12.588;2023-07-31T20:11:47;99106.13;;;29.01;58.33
14882;BME280;7533;51.278;12.588;2023-07-31T20:16:50;99103.56;;;29.08;57.95
14882;BME280;7533;51.278;12.588;2023-07-31T20:21:54;99095.47;;;29.14;58.08
14882;BME280;7533;51.278;12.588;2023-07-31T20:26:59;99086.28;;;29.15;57.73
14882;BME280;7533;51.278;12.588;2023-07-31T20:32:04;99076.84;;;29.18;57.46
14882;BME280;7533;51.278;12.588;2023-07-31T20:37:08;99070.84;;;29.22;57.46
14882;BME280;7533;51.278;12.588;2023-07-31T20:42:16;99067.97;;;29.24;57.34
14882;BME280;7533;51.278;12.588;2023-07-31T20:47:28;99066.53;;;29.28;57.02
14882;BME280;7533;51.278;12.588;2023-07-31T20:52:42;99050.03;;;29.30;57.40
14882;BME280;7533;51.278;12.588;2023-07-31T20:57:51;99036.84;;;29.33;57.33
14882;BME280;7533;51.278;12.588;2023-07-31T21:03:03;99031.69;;;29.38;57.09
14882;BME280;7533;51.278;12.588;2023-07-31T21:08:12;99040.91;;;29.37;56.52
14882;BME280;7533;51.278;12.588;2023-07-31T21:13:30;99036.47;;;29.36;56.50
14882;BME280;7533;51.278;12.588;2023-07-31T21:18:33;99037.31;;;29.37;56.31
14882;BME280;7533;51.278;12.588;2023-07-31T21:23:46;99040.41;;;29.34;56.61
14882;BME280;7533;51.278;12.588;2023-07-31T21:28:56;99037.59;;;29.27;56.86
14882;BME280;7533;51.278;12.588;2023-07-31T21:34:09;99043.69;;;29.29;56.76
14882;BME280;7533;51.278;12.588;2023-07-31T21:39:12;99037.59;;;29.27;57.17
14882;BME280;7533;51.278;12.588;2023-07-31T21:44:18;99044.28;;;29.24;56.73
14882;BME280;7533;51.278;12.588;2023-07-31T21:49:21;99042.13;;;29.20;57.16
14882;BME280;7533;51.278;12.588;2023-07-31T21:54:31;99038.53;;;29.19;57.29
14882;BME280;7533;51.278;12.588;2023-07-31T21:59:36;99027.16;;;29.16;57.31
14882;BME280;7533;51.278;12.588;2023-07-31T22:04:41;99023.97;;;29.12;57.54
14882;BME280;7533;51.278;12.588;2023-07-31T22:09:46;99020.22;;;29.13;57.35
14882;BME280;7533;51.278;12.588;2023-07-31T22:14:50;99021.63;;;29.09;57.36
14882;BME280;7533;51.278;12.588;2023-07-31T22:19:53;99022.66;;;29.08;57.37
14882;BME280;7533;51.278;12.588;2023-07-31T22:24:57;99020.09;;;29.07;57.50
14882;BME280;7533;51.278;12.588;2023-07-31T22:30:01;98998.69;;;29.04;57.87
14882;BME280;7533;51.278;12.588;2023-07-31T22:35:09;99001.63;;;29.02;58.03
14882;BME280;7533;51.278;12.588;2023-07-31T22:40:13;98981.03;;;28.99;58.19
14882;BME280;7533;51.278;12.588;2023-07-31T22:45:19;98968.63;;;28.97;58.24
14882;BME280;7533;51.278;12.588;2023-07-31T22:50:21;98948.53;;;28.98;57.90
14882;BME280;7533;51.278;12.588;2023-07-31T22:55:24;98944.47;;;28.94;58.12
14882;BME280;7533;51.278;12.588;2023-07-31T23:00:29;98927.66;;;28.90;58.61
14882;BME280;7533;51.278;12.588;2023-07-31T23:05:32;98920.41;;;28.83;58.43
14882;BME280;7533;51.278;12.588;2023-07-31T23:10:35;98910.06;;;28.78;58.66
14882;BME280;7533;51.278;12.588;2023-07-31T23:15:40;98900.22;;;28.77;58.77
14882;BME280;7533;51.278;12.588;2023-07-31T23:20:57;98883.44;;;28.73;58.83
14882;BME280;7533;51.278;12.588;2023-07-31T23:26:10;98875.13;;;28.67;58.87
14882;BME280;7533;51.278;12.588;2023-07-31T23:31:26;98858.53;;;28.62;59.25
14882;BME280;7533;51.278;12.588;2023-07-31T23:36:35;98854.50;;;28.58;59.44
14882;BME280;7533;51.278;12.588;2023-07-31T23:41:39;98849.41;;;28.55;59.51
14882;BME280;7533;51.278;12.588;2023-07-31T23:46:43;98841.81;;;28.50;59.57
14882;BME280;7533;51.278;12.588;2023-07-31T23:51:49;98831.13;;;28.49;59.57
14882;BME280;7533;51.278;12.588;2023-07-31T23:56:52;98807.19;;;28.44;59.68
